Time;durP1;ratioP1;P1;durP2;ratioP2;P2;SDS_P1;SDS_P2;PMS_P1;PMS_P2;Temp;Humidity;BMP_temperature;BMP_pressure;BME280_temperature;BME280_humidity;BME280_pressure;Samples;Min_cycle;Max_cycle;Signal;HPM_P1;HPM_P2
2023/03/03 00:02:08;;;;;;;15.70;9.20;;;;;;;1.99;69.69;99534.38;107610;1252;70023;-39
2023/03/03 00:04:36;;;;;;;15.70;9.20;;;;;;;2.06;69.53;99527.41;107631;1253;73834;-39
2023/03/03 00:07:05;;;;;;;15.80;9.50;;;;;;;2.11;69.88;99524.57;107588;1253;60925;-39
2023/03/03 00:09:34;;;;;;;15.40;9.60;;;;;;;2.12;69.80;99523.73;107644;1253;60433;-39
2023/03/03 00:12:27;;;;;;;16.70;10.10;;;;;;;2.11;69.67;99525.80;107634;1253;74780;-39
2023/03/03 00:14:55;;;;;;;15.10;9.50;;;;;;;2.07;69.72;99519.39;107634;1256;69888;-39
2023/03/03 00:17:28;;;;;;;12.60;8.70;;;;;;;2.04;69.73;99516.38;107603;1252;73827;-39
2023/03/03 00:19:57;;;;;;;14.00;8.80;;;;;;;2.06;69.70;99516.88;107548;1253;62015;-39
2023/03/03 00:22:29;;;;;;;15.70;9.80;;;;;;;2.11;69.56;99509.74;107550;1252;61510;-40
2023/03/03 00:25:01;;;;;;;14.30;8.50;;;;;;;2.13;69.68;99509.73;107614;1253;75001;-40
2023/03/03 00:27:34;;;;;;;15.10;9.40;;;;;;;2.17;69.61;99505.94;107645;1253;69702;-40
2023/03/03 00:30:17;;;;;;;15.20;9.00;;;;;;;2.20;69.39;99503.35;107615;1253;73903;-40
2023/03/03 00:32:49;;;;;;;15.80;9.30;;;;;;;2.14;69.42;99484.84;107635;1252;60200;-40
2023/03/03 00:35:26;;;;;;;14.90;9.10;;;;;;;2.21;69.14;99495.15;107544;1252;61565;-40
2023/03/03 00:38:00;;;;;;;15.00;8.80;;;;;;;2.23;69.28;99492.34;107627;1253;75066;-40
2023/03/03 00:40:34;;;;;;;14.10;8.50;;;;;;;2.29;69.07;99488.36;107590;1253;69955;-40
2023/03/03 00:43:20;;;;;;;13.90;9.30;;;;;;;2.33;69.21;99484.94;107449;1253;72615;-40
2023/03/03 00:45:53;;;;;;;13.20;9.20;;;;;;;2.33;69.12;99480.23;107528;1253;60760;-40
2023/03/03 00:48:29;;;;;;;13.00;8.80;;;;;;;2.31;69.00;99477.39;107580;1254;61167;-40
2023/03/03 00:50:59;;;;;;;16.40;9.60;;;;;;;2.30;68.92;99476.82;107521;1256;74882;-40
2023/03/03 00:53:28;;;;;;;;;;;;;;;2.28;68.99;99476.79;107713;1253;67977;-40
2023/03/03 00:55:57;;;;;;;14.00;9.00;;;;;;;2.21;69.10;99469.64;106755;1253;1003363;-40
2023/03/03 00:58:26;;;;;;;11.30;7.30;;;;;;;2.16;69.44;99466.30;107637;1252;61017;-40
2023/03/03 01:00:59;;;;;;;13.30;8.10;;;;;;;2.23;69.19;99463.60;107491;1253;61178;-40
2023/03/03 01:03:42;;;;;;;12.00;8.20;;;;;;;2.33;69.30;99464.82;107540;1252;74957;-40
2023/03/03 01:06:11;;;;;;;12.70;8.40;;;;;;;2.36;69.14;99454.52;107567;1253;69348;-40
2023/03/03 01:08:40;;;;;;;12.80;8.50;;;;;;;2.42;69.07;99454.01;107440;1253;71764;-40
2023/03/03 01:11:15;;;;;;;13.70;8.90;;;;;;;2.46;68.79;99451.46;107457;1253;60762;-40
2023/03/03 01:13:45;;;;;;;14.70;8.60;;;;;;;2.43;68.62;99451.52;107525;1253;61105;-40
2023/03/03 01:16:17;;;;;;;14.80;9.40;;;;;;;2.38;68.47;99447.89;107604;1251;75164;-40
2023/03/03 01:18:49;;;;;;;16.40;9.30;;;;;;;2.35;68.66;99444.01;107592;1251;69967;-39
2023/03/03 01:21:17;;;;;;;14.90;9.50;;;;;;;2.32;68.50;99437.94;107696;1256;73886;-39
2023/03/03 01:23:46;;;;;;;15.30;9.80;;;;;;;2.31;68.65;99437.27;107730;1251;61125;-39
2023/03/03 01:26:15;;;;;;;13.30;9.30;;;;;;;2.32;68.68;99429.58;107738;1251;61578;-39
2023/03/03 01:28:43;;;;;;;14.60;10.10;;;;;;;2.32;68.79;99431.15;107705;1251;74141;-39
2023/03/03 01:31:12;;;;;;;13.60;9.20;;;;;;;2.30;68.88;99426.96;107729;1251;69438;-39
2023/03/03 01:33:40;;;;;;;14.40;9.80;;;;;;;2.29;68.95;99432.88;107665;1251;73853;-40
2023/03/03 01:36:09;;;;;;;18.00;10.70;;;;;;;2.26;69.05;99430.80;107681;1251;60561;-40
2023/03/03 01:38:38;;;;;;;15.80;10.20;;;;;;;2.21;69.06;99426.08;107731;1251;61416;-40
2023/03/03 01:41:12;;;;;;;15.00;10.10;;;;;;;2.18;69.27;99425.66;107701;1251;73833;-40
2023/03/03 01:43:44;;;;;;;15.80;10.40;;;;;;;2.15;69.39;99423.85;107786;1251;70273;-40
2023/03/03 01:46:40;;;;;;;17.50;10.60;;;;;;;2.19;69.39;99425.88;107669;1251;74129;-40
2023/03/03 01:49:14;;;;;;;16.90;9.40;;;;;;;2.28;69.27;99423.30;107765;1251;59526;-40
2023/03/03 01:51:54;;;;;;;14.80;8.80;;;;;;;2.28;69.36;99417.58;107634;1251;59841;-40
2023/03/03 01:54:45;;;;;;;15.20;9.50;;;;;;;2.28;69.22;99417.02;107618;1251;73622;-40
2023/03/03 01:57:18;;;;;;;15.20;9.90;;;;;;;2.25;69.40;99414.29;107708;1251;69918;-40
2023/03/03 01:59:48;;;;;;;16.90;10.80;;;;;;;2.16;69.46;99411.64;107557;1251;73904;-40
2023/03/03 02:02:16;;;;;;;17.90;11.00;;;;;;;2.11;69.67;99411.28;107665;1251;60283;-40
2023/03/03 02:04:47;;;;;;;18.10;10.60;;;;;;;2.12;69.85;99412.38;107711;1251;60971;-40
2023/03/03 02:07:15;;;;;;;19.50;12.00;;;;;;;2.16;69.84;99410.55;107663;1251;74865;-40
2023/03/03 02:10:04;;;;;;;16.30;10.90;;;;;;;2.17;69.83;99405.95;107628;1251;69610;-40
2023/03/03 02:12:50;;;;;;;17.00;10.90;;;;;;;2.14;69.88;99407.45;104664;1253;1015626;-40
2023/03/03 02:15:23;;;;;;;20.00;11.30;;;;;;;2.10;70.27;99405.70;107685;1251;60336;-40
2023/03/03 02:17:53;;;;;;;18.40;12.50;;;;;;;2.07;70.34;99403.50;107737;1251;61284;-40
2023/03/03 02:20:25;;;;;;;19.00;11.60;;;;;;;2.05;70.53;99398.33;107740;1251;73425;-40
2023/03/03 02:23:20;;;;;;;18.10;11.60;;;;;;;2.03;70.75;99396.64;107725;1251;69879;-40
2023/03/03 02:25:54;;;;;;;20.10;12.40;;;;;;;2.09;70.81;99395.40;107551;1251;200762;-40
2023/03/03 02:29:06;;;;;;;19.10;12.60;;;;;;;2.12;70.84;99393.35;104164;1292;600386;-40
2023/03/03 02:31:36;;;;;;;18.50;12.80;;;;;;;2.11;70.99;99395.40;106679;1267;59754;-40
2023/03/03 02:34:04;;;;;;;21.00;13.30;;;;;;;2.10;70.79;99394.77;106769;1267;60848;-40
2023/03/03 02:36:35;;;;;;;19.30;12.90;;;;;;;2.07;71.04;99391.17;106779;1266;73182;-40
2023/03/03 02:39:05;;;;;;;19.50;12.40;;;;;;;2.01;71.09;99386.32;106726;1267;69888;-40
2023/03/03 02:41:52;;;;;;;17.90;11.80;;;;;;;2.01;71.19;99389.52;106567;1263;225657;-40
2023/03/03 02:44:22;;;;;;;18.90;11.70;;;;;;;2.04;71.18;99382.84;106738;1263;59253;-40
2023/03/03 02:46:52;;;;;;;20.40;11.50;;;;;;;2.01;71.40;99386.44;106856;1263;59525;-40
2023/03/03 02:49:26;;;;;;;18.00;11.90;;;;;;;2.00;71.44;99381.10;106875;1264;73378;-40
2023/03/03 02:51:54;;;;;;;21.20;12.10;;;;;;;1.98;71.66;99375.22;106731;1264;69646;-40
2023/03/03 02:54:25;;;;;;;18.00;11.70;;;;;;;1.96;71.60;99372.11;106823;1263;73567;-40
2023/03/03 02:56:53;;;;;;;14.10;9.30;;;;;;;1.95;71.92;99374.91;106756;1269;62512;-40
2023/03/03 02:59:22;;;;;;;16.40;10.80;;;;;;;1.97;72.00;99369.52;106701;1264;61278;-40
2023/03/03 03:01:53;;;;;;;16.00;10.40;;;;;;;2.03;71.80;99369.91;106858;1267;74199;-40
2023/03/03 03:04:23;;;;;;;20.00;10.40;;;;;;;2.06;71.90;99367.70;106838;1264;70034;-40
2023/03/03 03:06:53;;;;;;;14.50;10.00;;;;;;;2.07;71.67;99363.14;106851;1263;72836;-40
2023/03/03 03:09:23;;;;;;;18.90;11.70;;;;;;;2.04;71.78;99359.77;106819;1263;60690;-40
2023/03/03 03:11:52;;;;;;;15.00;10.20;;;;;;;2.02;71.82;99363.30;106725;1263;61518;-40
2023/03/03 03:14:24;;;;;;;14.90;9.70;;;;;;;2.02;71.84;99360.05;106737;1263;73797;-40
2023/03/03 03:16:54;;;;;;;14.10;9.10;;;;;;;2.05;71.70;99351.36;106879;1263;69029;-40
2023/03/03 03:19:23;;;;;;;13.00;9.00;;;;;;;2.10;71.58;99352.06;106868;1267;72141;-40
2023/03/03 03:21:51;;;;;;;15.90;9.70;;;;;;;2.10;71.62;99351.30;106801;1264;60563;-40
2023/03/03 03:24:20;;;;;;;16.30;9.80;;;;;;;2.07;71.68;99349.18;106849;1269;59691;-40
2023/03/03 03:26:54;;;;;;;16.50;9.50;;;;;;;2.05;71.75;99345.41;106809;1263;73899;-40
2023/03/03 03:29:23;;;;;;;17.00;10.30;;;;;;;2.04;71.68;99347.38;106821;1264;69911;-40
2023/03/03 03:31:51;;;;;;;14.20;9.20;;;;;;;2.02;71.84;99342.71;106854;1263;72873;-40
2023/03/03 03:34:20;;;;;;;14.20;9.10;;;;;;;2.05;71.70;99340.03;106627;1264;62205;-40
2023/03/03 03:36:49;;;;;;;13.80;9.50;;;;;;;2.11;71.73;99336.02;106790;1263;60122;-40
2023/03/03 03:39:38;;;;;;;14.90;9.40;;;;;;;2.15;71.51;99330.58;106102;1263;1002943;-41
2023/03/03 03:42:07;;;;;;;13.80;9.40;;;;;;;2.14;71.58;99332.59;106842;1263;69649;-41
2023/03/03 03:44:36;;;;;;;16.60;10.30;;;;;;;2.14;71.48;99328.99;106830;1263;72406;-41
2023/03/03 03:47:08;;;;;;;14.40;9.30;;;;;;;2.14;71.62;99330.82;106835;1268;60812;-41
2023/03/03 03:49:37;;;;;;;16.00;9.20;;;;;;;2.14;71.51;99326.54;106880;1263;61304;-41
2023/03/03 03:52:05;;;;;;;14.20;10.00;;;;;;;2.17;71.40;99324.98;106851;1268;74020;-40
2023/03/03 03:54:34;;;;;;;15.20;9.80;;;;;;;2.24;71.29;99324.34;106137;1263;1003720;-41
2023/03/03 03:57:02;;;;;;;14.00;9.70;;;;;;;2.25;71.23;99321.63;104600;1263;1003690;-41
2023/03/03 03:59:31;;;;;;;13.30;9.30;;;;;;;2.19;71.58;99318.77;106783;1263;59668;-41
2023/03/03 04:02:00;;;;;;;14.90;9.80;;;;;;;2.16;71.41;99319.98;106804;1263;60341;-41
2023/03/03 04:04:29;;;;;;;12.70;8.10;;;;;;;2.11;71.46;99312.98;106728;1264;72087;-40
2023/03/03 04:06:58;;;;;;;16.50;10.10;;;;;;;2.09;71.63;99313.13;106836;1264;70134;-40
2023/03/03 04:09:27;;;;;;;13.10;9.50;;;;;;;2.11;71.80;99315.01;106844;1264;73932;-40
2023/03/03 04:11:56;;;;;;;15.10;9.20;;;;;;;2.16;71.72;99309.46;106833;1263;60804;-40
2023/03/03 04:14:30;;;;;;;14.30;9.40;;;;;;;2.15;71.57;99308.17;106881;1264;61255;-40
2023/03/03 04:16:59;;;;;;;17.90;10.70;;;;;;;2.11;71.70;99306.23;107048;1261;74195;-40
2023/03/03 04:19:27;;;;;;;15.50;10.20;;;;;;;2.11;71.75;99302.98;107021;1266;70069;-40
2023/03/03 04:21:57;;;;;;;15.00;9.20;;;;;;;2.08;71.93;99297.59;106890;1261;73698;-40
2023/03/03 04:24:26;;;;;;;12.50;7.00;;;;;;;2.04;71.88;99297.46;107012;1260;62218;-40
2023/03/03 04:26:56;;;;;;;13.80;9.10;;;;;;;2.06;72.07;99295.56;107013;1261;61364;-40
2023/03/03 04:29:25;;;;;;;15.10;10.10;;;;;;;2.10;72.00;99292.09;107020;1260;73966;-40
2023/03/03 04:31:54;;;;;;;15.70;10.10;;;;;;;2.09;72.02;99292.17;107031;1261;69467;-40
2023/03/03 04:34:23;;;;;;;16.50;10.20;;;;;;;2.04;72.13;99286.08;107341;1257;72816;-40
2023/03/03 04:36:51;;;;;;;17.60;11.20;;;;;;;2.01;72.12;99286.54;105833;1257;1003529;-40
2023/03/03 04:39:21;;;;;;;14.90;10.10;;;;;;;2.02;72.36;99284.59;107130;1256;61201;-40
2023/03/03 04:41:50;;;;;;;15.10;9.80;;;;;;;2.06;72.12;99282.16;107130;1257;74196;-40
2023/03/03 04:44:19;;;;;;;17.00;10.60;;;;;;;2.13;72.08;99283.00;107316;1257;69721;-40
2023/03/03 04:46:49;;;;;;;;;;;;;;;2.16;71.97;99279.86;107190;1257;73317;-40
2023/03/03 04:49:17;;;;;;;15.50;10.30;;;;;;;2.08;71.98;99276.95;107302;1258;60475;-40
2023/03/03 04:51:47;;;;;;;15.70;9.90;;;;;;;1.99;72.25;99278.71;107224;1258;61166;-40
2023/03/03 04:54:16;;;;;;;15.60;10.10;;;;;;;1.96;72.49;99278.22;107302;1257;73910;-40
2023/03/03 04:56:45;;;;;;;14.60;9.30;;;;;;;1.91;72.52;99278.92;107291;1256;70192;-40
2023/03/03 04:59:14;;;;;;;16.40;9.90;;;;;;;1.95;72.79;99276.52;107262;1256;73692;-40
2023/03/03 05:01:45;;;;;;;16.20;10.50;;;;;;;2.04;72.41;99278.18;107145;1262;60473;-40
2023/03/03 05:04:14;;;;;;;13.30;10.10;;;;;;;2.01;72.23;99266.21;107150;1262;61456;-40
2023/03/03 05:06:43;;;;;;;14.30;9.70;;;;;;;2.07;72.32;99273.46;107257;1257;74221;-40
2023/03/03 05:09:13;;;;;;;15.90;10.30;;;;;;;1.96;72.35;99260.20;107312;1257;69868;-40
2023/03/03 05:11:41;;;;;;;14.80;10.00;;;;;;;1.99;72.30;99278.52;107287;1257;73920;-40
2023/03/03 05:14:11;;;;;;;16.00;9.40;;;;;;;1.94;72.30;99275.00;107303;1257;62417;-40
2023/03/03 05:16:40;;;;;;;;;;;;;;;1.97;72.49;99276.43;107320;1257;62270;-40
2023/03/03 05:19:09;;;;;;;15.30;9.80;;;;;;;1.98;72.39;99279.27;107277;1257;73868;-40
2023/03/03 05:21:41;;;;;;;13.60;9.30;;;;;;;1.98;72.54;99272.44;107318;1257;70038;-41
2023/03/03 05:24:11;;;;;;;17.50;9.90;;;;;;;1.99;72.48;99274.29;107326;1257;73614;-40
2023/03/03 05:26:40;;;;;;;14.40;9.20;;;;;;;2.01;72.41;99270.98;107306;1257;60436;-41
2023/03/03 05:29:09;;;;;;;15.10;9.30;;;;;;;2.02;72.26;99271.00;107282;1257;62018;-40
2023/03/03 05:31:37;;;;;;;13.50;8.80;;;;;;;2.00;72.38;99268.66;107178;1257;74079;-40
2023/03/03 05:34:06;;;;;;;16.20;9.20;;;;;;;2.03;72.06;99266.53;107208;1257;69664;-40
2023/03/03 05:36:34;;;;;;;12.80;8.30;;;;;;;2.11;72.10;99263.98;107220;1257;72282;-40
2023/03/03 05:39:05;;;;;;;14.10;9.40;;;;;;;2.12;71.90;99262.05;107207;1257;60388;-41
2023/03/03 05:41:35;;;;;;;14.30;9.10;;;;;;;2.10;71.84;99262.63;107254;1257;61103;-41
2023/03/03 05:44:04;;;;;;;15.90;10.10;;;;;;;2.09;71.81;99263.86;107244;1257;74344;-41
2023/03/03 05:46:33;;;;;;;17.90;10.00;;;;;;;2.09;72.05;99265.98;107301;1257;69894;-41
2023/03/03 05:49:01;;;;;;;13.40;9.30;;;;;;;2.08;71.83;99263.52;107218;1257;74019;-41
2023/03/03 05:51:31;;;;;;;12.20;8.90;;;;;;;2.13;71.80;99262.60;107220;1257;61917;-41
2023/03/03 05:54:00;;;;;;;12.10;8.70;;;;;;;2.20;71.76;99262.48;107254;1257;61540;-40
2023/03/03 05:56:29;;;;;;;13.80;8.70;;;;;;;2.22;71.62;99256.52;107325;1257;74261;-40
2023/03/03 05:59:03;;;;;;;12.80;8.70;;;;;;;2.19;71.59;99255.27;105802;1258;1003257;-40
2023/03/03 06:01:32;;;;;;;13.50;8.20;;;;;;;2.14;71.34;99253.20;107286;1257;73989;-41
2023/03/03 06:04:01;;;;;;;14.60;9.90;;;;;;;2.11;71.86;99254.38;107277;1257;60727;-40
2023/03/03 06:06:30;;;;;;;16.30;9.80;;;;;;;2.07;71.98;99250.30;107321;1260;61615;-40
2023/03/03 06:08:58;;;;;;;13.60;9.60;;;;;;;2.06;71.98;99248.88;107327;1260;74207;-40
2023/03/03 06:11:28;;;;;;;16.90;10.10;;;;;;;2.08;72.08;99248.55;107304;1257;69633;-40
2023/03/03 06:14:05;;;;;;;16.10;9.40;;;;;;;2.09;72.16;99246.13;107270;1260;73903;-40
2023/03/03 06:16:33;;;;;;;16.70;9.90;;;;;;;2.08;72.24;99248.14;107319;1260;60843;-40
2023/03/03 06:19:02;;;;;;;14.60;9.90;;;;;;;2.06;72.38;99243.79;107241;1257;61540;-40
2023/03/03 06:21:31;;;;;;;15.10;10.00;;;;;;;2.05;72.30;99243.23;107252;1257;74118;-40
2023/03/03 06:23:59;;;;;;;16.20;9.30;;;;;;;2.08;72.21;99244.11;107170;1257;69822;-40
2023/03/03 06:26:30;;;;;;;13.10;9.20;;;;;;;2.13;72.27;99244.14;107228;1257;73557;-40
2023/03/03 06:28:59;;;;;;;15.50;10.20;;;;;;;2.15;72.01;99242.02;107228;1257;60770;-40
2023/03/03 06:31:27;;;;;;;18.50;10.30;;;;;;;2.17;72.14;99246.39;107234;1257;61979;-40
2023/03/03 06:33:56;;;;;;;14.90;10.20;;;;;;;2.19;71.81;99243.10;107204;1262;74312;-40
2023/03/03 06:36:27;;;;;;;15.00;9.70;;;;;;;2.19;71.66;99242.83;107225;1257;70239;-40
2023/03/03 06:38:56;;;;;;;14.00;9.60;;;;;;;2.24;71.46;99245.87;107223;1257;74024;-40
2023/03/03 06:41:25;;;;;;;15.80;9.90;;;;;;;2.32;71.33;99242.15;107196;1258;60610;-40
2023/03/03 06:43:53;;;;;;;15.00;9.70;;;;;;;2.37;70.92;99241.77;107255;1257;60724;-40
2023/03/03 06:46:22;;;;;;;14.90;9.90;;;;;;;2.36;70.91;99239.45;107130;1262;75042;-40
2023/03/03 06:48:51;;;;;;;13.30;9.10;;;;;;;2.35;70.92;99240.44;107116;1263;69886;-40
2023/03/03 06:51:31;;;;;;;16.70;10.00;;;;;;;2.33;70.98;99238.34;107117;1257;73836;-40
2023/03/03 06:54:17;;;;;;;16.00;9.90;;;;;;;2.29;71.09;99242.83;107147;1257;62235;-40
2023/03/03 06:56:46;;;;;;;13.40;7.80;;;;;;;2.33;70.64;99239.27;107257;1257;60486;-40
2023/03/03 06:59:20;;;;;;;15.90;9.90;;;;;;;2.36;70.49;99237.67;107233;1262;74776;-40
2023/03/03 07:01:48;;;;;;;17.70;10.80;;;;;;;2.38;70.74;99239.17;107243;1257;68628;-40
2023/03/03 07:04:28;;;;;;;15.20;9.80;;;;;;;2.41;70.59;99236.79;107224;1257;73861;-40
2023/03/03 07:06:58;;;;;;;17.50;10.40;;;;;;;2.45;70.60;99233.21;107208;1258;60827;-40
2023/03/03 07:09:27;;;;;;;20.90;10.30;;;;;;;2.45;70.18;99231.08;107246;1257;60357;-40
2023/03/03 07:12:17;;;;;;;14.30;8.90;;;;;;;2.52;69.86;99231.89;107242;1257;72551;-40
2023/03/03 07:14:54;;;;;;;15.10;9.70;;;;;;;2.64;69.96;99236.66;107115;1262;68666;-40
2023/03/03 07:17:24;;;;;;;17.30;10.90;;;;;;;2.66;69.64;99234.70;107152;1257;72810;-40
2023/03/03 07:19:52;;;;;;;15.60;10.00;;;;;;;2.66;69.38;99233.55;107064;1257;60444;-41
2023/03/03 07:22:24;;;;;;;16.40;10.90;;;;;;;2.65;69.26;99230.24;107172;1257;60688;-40
2023/03/03 07:24:55;;;;;;;17.60;10.10;;;;;;;2.65;69.16;99230.45;107265;1257;74796;-40
2023/03/03 07:27:25;;;;;;;14.80;10.10;;;;;;;2.68;69.26;99227.91;107252;1262;69740;-40
2023/03/03 07:29:55;;;;;;;17.20;11.00;;;;;;;2.79;68.71;99221.23;107217;1257;73766;-40
2023/03/03 07:32:26;;;;;;;16.30;10.60;;;;;;;2.85;68.47;99220.75;106974;1257;60565;-40
2023/03/03 07:34:55;;;;;;;16.30;10.90;;;;;;;2.88;68.24;99217.48;107165;1262;61544;-40
2023/03/03 07:37:37;;;;;;;20.30;11.60;;;;;;;2.92;67.93;99215.39;107232;1257;74197;-40
2023/03/03 07:40:31;;;;;;;17.40;10.90;;;;;;;2.95;67.73;99214.98;107116;1257;69663;-40
2023/03/03 07:42:59;;;;;;;17.30;10.90;;;;;;;2.99;67.37;99211.42;107092;1262;71603;-40
2023/03/03 07:45:35;;;;;;;19.30;11.30;;;;;;;3.00;65.41;99207.65;107023;1257;62414;-40
2023/03/03 07:48:41;;;;;;;18.50;11.20;;;;;;;3.10;65.12;99208.23;107207;1257;61192;-41
2023/03/03 07:51:38;;;;;;;15.80;10.80;;;;;;;3.18;64.27;99209.28;106675;1266;73932;-41
2023/03/03 07:54:14;;;;;;;20.30;12.00;;;;;;;3.21;64.22;99209.13;107165;1257;69973;-41
2023/03/03 07:56:43;;;;;;;16.80;11.10;;;;;;;3.23;64.18;99203.91;107240;1257;72655;-41
2023/03/03 07:59:31;;;;;;;16.40;11.10;;;;;;;3.26;63.75;99200.61;107193;1257;60508;-41
2023/03/03 08:02:01;;;;;;;17.20;11.90;;;;;;;3.28;63.02;99198.77;106994;1257;61376;-41
2023/03/03 08:04:49;;;;;;;20.80;12.00;;;;;;;3.26;62.58;99197.84;107222;1257;75521;-41
2023/03/03 08:07:20;;;;;;;18.90;11.80;;;;;;;3.26;62.60;99194.83;107204;1257;67759;-41
2023/03/03 08:09:50;;;;;;;;;;;;;;;3.17;62.57;99190.71;107176;1257;72169;-41
2023/03/03 08:12:42;;;;;;;18.60;11.30;;;;;;;3.25;62.56;99194.81;107222;1262;62245;-41
2023/03/03 08:15:18;;;;;;;18.50;12.10;;;;;;;3.34;62.50;99189.98;107231;1263;61480;-41
2023/03/03 08:17:48;;;;;;;19.60;11.60;;;;;;;3.39;62.02;99189.92;107026;1257;74706;-41
2023/03/03 08:20:47;;;;;;;21.40;12.80;;;;;;;3.41;61.93;99186.96;107240;1257;67835;-42
2023/03/03 08:23:16;;;;;;;18.40;11.20;;;;;;;3.42;62.15;99187.95;107045;1257;73858;-41
2023/03/03 08:25:45;;;;;;;20.40;12.30;;;;;;;3.42;61.89;99184.72;107122;1257;59700;-41
2023/03/03 08:28:15;;;;;;;18.70;12.40;;;;;;;3.45;61.64;99184.63;107114;1257;60590;-41
2023/03/03 08:30:46;;;;;;;21.10;12.50;;;;;;;3.46;61.05;99178.77;107100;1263;74030;-41
2023/03/03 08:33:16;;;;;;;18.60;12.80;;;;;;;3.46;60.71;99182.83;107116;1257;69959;-41
2023/03/03 08:35:44;;;;;;;18.30;11.80;;;;;;;3.46;60.31;99179.07;107213;1263;73903;-41
2023/03/03 08:38:16;;;;;;;19.90;12.50;;;;;;;3.44;59.96;99178.70;107285;1263;60801;-41
2023/03/03 08:40:45;;;;;;;19.30;12.80;;;;;;;3.42;60.03;99179.81;107009;1260;59816;-41
2023/03/03 08:43:21;;;;;;;20.90;12.90;;;;;;;3.42;60.12;99175.05;107192;1261;75602;-41
2023/03/03 08:45:51;;;;;;;19.50;12.80;;;;;;;3.41;59.24;99173.88;107217;1257;68282;-41
2023/03/03 08:48:20;;;;;;;19.30;12.70;;;;;;;3.41;59.03;99169.81;107200;1257;73992;-40
2023/03/03 08:50:48;;;;;;;19.80;12.90;;;;;;;3.40;59.12;99167.26;107114;1263;61046;-40
2023/03/03 08:53:17;;;;;;;18.50;12.10;;;;;;;3.41;59.04;99160.98;107197;1260;61524;-40
2023/03/03 08:55:46;;;;;;;18.20;12.10;;;;;;;3.42;58.72;99159.77;107086;1262;75080;-40
2023/03/03 08:58:16;;;;;;;20.00;12.20;;;;;;;3.45;58.60;99156.66;107075;1261;69921;-40
2023/03/03 09:00:48;;;;;;;19.10;11.60;;;;;;;3.47;58.26;99151.88;107159;1263;73884;-40
2023/03/03 09:03:39;;;;;;;18.60;12.20;;;;;;;3.49;58.21;99154.29;107210;1261;61113;-40
2023/03/03 09:06:08;;;;;;;19.00;11.60;;;;;;;3.49;58.20;99153.48;106508;1259;1003751;-40
2023/03/03 09:08:37;;;;;;;18.20;11.90;;;;;;;3.53;58.27;99158.67;107200;1258;73675;-40
2023/03/03 09:11:13;;;;;;;15.20;10.40;;;;;;;3.56;58.06;99159.48;105741;1257;1003748;-40
2023/03/03 09:13:52;;;;;;;17.20;11.70;;;;;;;3.60;58.15;99154.41;107180;1259;73483;-40
2023/03/03 09:16:21;;;;;;;18.20;12.00;;;;;;;3.64;58.28;99153.52;107234;1258;60757;-40
2023/03/03 09:18:53;;;;;;;20.10;11.90;;;;;;;3.66;57.67;99148.14;107210;1257;61960;-41
2023/03/03 09:21:24;;;;;;;19.10;10.80;;;;;;;3.65;57.47;99150.92;107209;1260;73525;-40
2023/03/03 09:23:57;;;;;;;17.50;10.90;;;;;;;3.64;57.60;99149.60;107541;1258;69971;-41
2023/03/03 09:26:30;;;;;;;16.70;10.80;;;;;;;3.66;57.95;99146.48;107502;1259;73920;-41
2023/03/03 09:29:27;;;;;;;15.40;10.40;;;;;;;3.70;58.28;99145.96;107500;1254;60533;-40
2023/03/03 09:31:59;;;;;;;16.70;10.70;;;;;;;3.77;57.98;99139.59;107439;1257;61558;-41
2023/03/03 09:34:38;;;;;;;16.90;10.30;;;;;;;3.78;57.59;99137.34;107519;1257;73922;-40
2023/03/03 09:37:35;;;;;;;15.60;10.20;;;;;;;3.78;57.03;99133.27;107485;1258;70064;-40
2023/03/03 09:40:24;;;;;;;15.20;10.20;;;;;;;3.77;57.27;99129.31;107455;1255;74238;-40
2023/03/03 09:43:03;;;;;;;15.40;9.90;;;;;;;3.77;57.65;99126.86;107169;1260;60689;-41
2023/03/03 09:45:36;;;;;;;17.70;10.80;;;;;;;3.81;57.63;99124.17;107508;1254;61122;-41
2023/03/03 09:48:27;;;;;;;14.90;9.60;;;;;;;3.84;57.40;99120.89;107590;1254;73760;-41
2023/03/03 09:51:04;;;;;;;;;;;;;;;3.88;57.29;99113.38;107518;1257;70054;-41
2023/03/03 09:53:45;;;;;;;15.20;10.00;;;;;;;3.86;56.78;99108.61;107507;1259;73878;-41
2023/03/03 09:56:34;;;;;;;14.10;8.60;;;;;;;3.88;57.04;99109.08;107539;1258;60563;-41
2023/03/03 09:59:20;;;;;;;14.00;9.10;;;;;;;3.94;57.13;99103.88;107614;1255;60319;-41
2023/03/03 10:01:51;;;;;;;15.50;9.30;;;;;;;3.97;57.21;99101.17;107522;1254;74834;-41
2023/03/03 10:04:24;;;;;;;14.00;9.20;;;;;;;4.01;57.28;99097.18;107507;1258;69880;-41
2023/03/03 10:07:05;;;;;;;17.30;9.00;;;;;;;4.07;57.25;99091.07;107460;1254;73888;-41
2023/03/03 10:10:13;;;;;;;14.60;9.70;;;;;;;4.12;57.12;99082.77;107527;1258;60667;-41
2023/03/03 10:13:10;;;;;;;15.50;10.30;;;;;;;4.18;56.81;99074.89;107602;1254;61556;-41
2023/03/03 10:16:04;;;;;;;15.80;9.80;;;;;;;4.27;56.93;99072.19;107545;1254;74051;-41
2023/03/03 10:18:45;;;;;;;14.90;9.90;;;;;;;4.41;57.09;99070.56;107539;1258;69946;-40
2023/03/03 10:21:24;;;;;;;14.10;9.30;;;;;;;4.54;56.53;99058.15;107521;1257;71339;-41
2023/03/03 10:24:17;;;;;;;13.70;9.60;;;;;;;4.65;55.72;99053.30;107504;1257;60806;-41
2023/03/03 10:27:04;;;;;;;15.50;9.30;;;;;;;4.74;55.11;99049.34;107550;1254;61494;-41
2023/03/03 10:30:23;;;;;;;13.80;8.80;;;;;;;4.83;55.35;99047.34;107458;1254;75049;-41
2023/03/03 10:33:22;;;;;;;13.70;8.60;;;;;;;4.87;55.30;99036.30;106886;1265;68858;-41
2023/03/03 10:36:11;;;;;;;13.60;8.20;;;;;;;4.88;54.71;99036.73;107466;1257;73788;-41
2023/03/03 10:38:50;;;;;;;13.50;7.90;;;;;;;4.95;53.95;99029.49;107450;1254;60450;-41
2023/03/03 10:41:35;;;;;;;11.60;7.10;;;;;;;4.98;53.67;99025.61;107437;1255;60613;-41
2023/03/03 10:44:16;;;;;;;11.20;7.10;;;;;;;5.08;53.74;99017.86;107481;1258;74741;-41
2023/03/03 10:46:51;;;;;;;10.60;6.90;;;;;;;5.25;53.00;99010.36;107469;1257;69405;-41
2023/03/03 10:49:45;;;;;;;11.40;7.40;;;;;;;5.33;52.84;99014.25;107449;1254;73833;-41
2023/03/03 10:52:18;;;;;;;10.40;7.50;;;;;;;5.36;52.80;99006.92;107417;1254;60810;-41
2023/03/03 10:55:08;;;;;;;10.70;7.00;;;;;;;5.40;52.80;99002.52;107500;1254;61189;-41
2023/03/03 10:58:07;;;;;;;9.00;7.00;;;;;;;5.41;52.57;98996.84;107490;1254;72921;-41
2023/03/03 11:01:18;;;;;;;10.10;6.20;;;;;;;5.38;52.11;98997.60;107419;1254;68947;-41
2023/03/03 11:03:52;;;;;;;9.70;6.40;;;;;;;5.35;52.26;98987.21;107490;1254;73088;-41
2023/03/03 11:06:39;;;;;;;9.30;5.90;;;;;;;5.32;52.91;98979.65;107469;1258;60585;-41
2023/03/03 11:09:11;;;;;;;11.00;6.20;;;;;;;5.32;52.73;98980.20;107503;1258;60398;-41
2023/03/03 11:11:46;;;;;;;9.90;6.60;;;;;;;5.36;52.38;98976.12;107499;1255;75283;-41
2023/03/03 11:14:37;;;;;;;9.70;6.10;;;;;;;5.36;52.28;98961.77;107549;1254;69648;-41
2023/03/03 11:17:33;;;;;;;9.20;5.20;;;;;;;5.55;50.53;98965.67;107504;1254;73747;-39
2023/03/03 11:20:19;;;;;;;8.10;5.10;;;;;;;5.55;50.05;98962.17;107508;1254;60411;-40
2023/03/03 11:22:57;;;;;;;8.30;5.70;;;;;;;5.52;50.32;98961.17;107479;1254;61215;-41
2023/03/03 11:25:54;;;;;;;10.10;5.60;;;;;;;5.51;50.58;98960.78;107519;1253;73569;-40
2023/03/03 11:29:00;;;;;;;9.50;5.40;;;;;;;5.52;51.37;98954.76;107521;1254;68500;-41
2023/03/03 11:31:41;;;;;;;9.50;5.80;;;;;;;5.56;51.63;98952.85;107455;1254;72964;-41
2023/03/03 11:34:47;;;;;;;6.30;4.80;;;;;;;5.54;50.52;98946.83;107268;1255;60772;-41
2023/03/03 11:37:36;;;;;;;7.20;4.30;;;;;;;5.57;50.48;98945.37;107423;1254;61525;-39
2023/03/03 11:40:36;;;;;;;4.80;2.90;;;;;;;5.62;50.06;98947.69;107449;1255;75247;-40
2023/03/03 11:43:19;;;;;;;6.20;3.20;;;;;;;5.70;47.33;98938.09;107393;1254;69929;-40
2023/03/03 11:46:15;;;;;;;5.20;2.90;;;;;;;5.73;47.37;98931.44;107436;1254;74107;-41
2023/03/03 11:48:57;;;;;;;5.20;3.50;;;;;;;5.75;47.80;98934.16;107456;1254;60487;-40
2023/03/03 11:51:35;;;;;;;5.90;3.70;;;;;;;5.77;48.83;98931.53;107529;1254;61529;-40
2023/03/03 11:54:31;;;;;;;5.40;3.50;;;;;;;5.71;48.07;98930.29;107480;1255;73399;-40
2023/03/03 11:57:08;;;;;;;5.20;3.10;;;;;;;5.62;47.68;98926.10;107567;1254;69950;-40
2023/03/03 11:59:40;;;;;;;5.20;4.00;;;;;;;5.54;48.17;98921.23;107346;1255;73610;-40